createdAt,value
2023-01-27T00:00:04.738Z,938.60
2023-01-27T00:05:03.458Z,938.66
2023-01-27T00:10:04.588Z,938.72
2023-01-27T00:15:03.617Z,938.72
2023-01-27T00:20:04.788Z,938.76
2023-01-27T00:25:04.460Z,938.84
2023-01-27T00:30:06.724Z,938.92
2023-01-27T00:35:03.496Z,938.92
2023-01-27T00:40:05.697Z,939.00
2023-01-27T00:45:03.682Z,939.00
2023-01-27T00:50:04.452Z,939.07
2023-01-27T00:55:03.423Z,939.13
2023-01-27T01:00:09.748Z,939.21
2023-01-27T01:05:04.695Z,939.29
2023-01-27T01:10:04.602Z,939.31
2023-01-27T01:15:03.724Z,939.37
2023-01-27T01:20:10.474Z,939.43
2023-01-27T01:25:04.455Z,939.47
2023-01-27T01:30:06.017Z,939.54
2023-01-27T01:35:03.599Z,939.60
2023-01-27T01:40:04.624Z,939.64
2023-01-27T01:45:03.451Z,939.66
2023-01-27T01:50:04.476Z,939.70
2023-01-27T01:55:03.451Z,939.64
2023-01-27T02:00:04.601Z,939.62
2023-01-27T02:05:03.283Z,939.62
2023-01-27T02:10:04.607Z,939.60
2023-01-27T02:15:03.594Z,939.56
2023-01-27T02:20:04.673Z,939.54
2023-01-27T02:25:03.416Z,939.60
2023-01-27T02:30:06.072Z,939.62
2023-01-27T02:35:03.241Z,939.56
2023-01-27T02:40:04.811Z,939.51
2023-01-27T02:45:03.417Z,939.47
2023-01-27T02:50:04.669Z,939.41
2023-01-27T02:55:03.424Z,939.35
2023-01-27T03:00:04.537Z,939.41
2023-01-27T03:05:03.490Z,939.45
2023-01-27T03:10:04.373Z,939.49
2023-01-27T03:15:03.435Z,939.47
2023-01-27T03:20:04.359Z,939.41
2023-01-27T03:25:03.183Z,939.39
2023-01-27T03:30:04.485Z,939.37
2023-01-27T03:35:03.460Z,939.33
2023-01-27T03:40:04.345Z,939.29
2023-01-27T03:45:03.312Z,939.25
2023-01-27T03:50:04.331Z,939.25
2023-01-27T03:55:03.341Z,939.19
2023-01-27T04:00:04.494Z,939.19
2023-01-27T04:05:03.480Z,939.09
2023-01-27T04:10:04.909Z,939.09
2023-01-27T04:15:03.264Z,939.00
2023-01-27T04:20:04.434Z,938.88
2023-01-27T04:25:03.344Z,938.84
2023-01-27T04:30:04.462Z,938.76
2023-01-27T04:35:03.454Z,938.70
2023-01-27T04:40:04.507Z,938.66
2023-01-27T04:45:03.507Z,938.62
2023-01-27T04:50:04.403Z,938.64
2023-01-27T04:55:03.372Z,938.68
2023-01-27T05:00:04.277Z,938.76
2023-01-27T05:05:03.425Z,938.72
2023-01-27T05:10:04.294Z,938.74
2023-01-27T05:15:03.242Z,938.72
2023-01-27T05:20:04.468Z,938.74
2023-01-27T05:25:03.301Z,938.78
2023-01-27T05:30:04.504Z,938.70
2023-01-27T05:35:03.420Z,938.64
2023-01-27T05:40:04.311Z,938.64
2023-01-27T05:45:03.243Z,938.60
2023-01-27T05:50:04.360Z,938.60
2023-01-27T05:55:03.373Z,938.54
2023-01-27T06:00:04.226Z,938.47
2023-01-27T06:05:03.440Z,938.51
2023-01-27T06:10:04.554Z,938.49
2023-01-27T06:15:03.288Z,938.54
2023-01-27T06:20:04.584Z,938.62
2023-01-27T06:25:03.506Z,938.66
2023-01-27T06:30:04.472Z,938.62
2023-01-27T06:35:03.429Z,938.60
2023-01-27T06:40:04.557Z,938.64
2023-01-27T06:45:03.379Z,938.62
2023-01-27T06:50:04.577Z,938.56
2023-01-27T06:55:03.407Z,938.52
2023-01-27T07:00:03.955Z,938.51
2023-01-27T07:05:03.532Z,938.45
2023-01-27T07:10:04.347Z,938.45
2023-01-27T07:15:03.293Z,938.45
2023-01-27T07:20:04.399Z,938.45
2023-01-27T07:25:03.373Z,938.47
2023-01-27T07:30:04.462Z,938.47
2023-01-27T07:35:03.139Z,938.54
2023-01-27T07:40:04.077Z,938.54
2023-01-27T07:45:04.373Z,938.64
2023-01-27T07:50:04.121Z,938.72
2023-01-27T07:55:03.337Z,938.76
2023-01-27T08:00:04.464Z,938.74
2023-01-27T08:05:03.207Z,938.84
2023-01-27T08:10:04.308Z,938.94
2023-01-27T08:15:03.246Z,939.00
2023-01-27T08:20:04.352Z,939.09
2023-01-27T08:25:03.438Z,939.07
2023-01-27T08:30:04.450Z,939.09
2023-01-27T08:35:03.437Z,939.23
2023-01-27T08:40:04.121Z,939.33
2023-01-27T08:45:03.467Z,939.37
2023-01-27T08:50:04.258Z,939.35
2023-01-27T08:55:03.341Z,939.35
2023-01-27T09:00:04.459Z,939.39
2023-01-27T09:05:03.406Z,939.49
2023-01-27T09:10:14.001Z,939.47
2023-01-27T09:15:03.446Z,939.47
2023-01-27T09:20:04.369Z,939.43
2023-01-27T09:25:03.432Z,939.49
2023-01-27T09:30:04.419Z,939.58
2023-01-27T09:35:03.416Z,939.68
2023-01-27T09:40:04.350Z,939.76
2023-01-27T09:45:04.305Z,939.76
2023-01-27T09:50:04.367Z,939.92
2023-01-27T09:55:03.519Z,939.92
2023-01-27T10:00:04.544Z,939.92
2023-01-27T10:05:03.458Z,939.98
2023-01-27T10:10:04.328Z,940.04
2023-01-27T10:15:03.332Z,940.13
2023-01-27T10:20:04.565Z,940.27
2023-01-27T10:25:03.367Z,940.27
2023-01-27T10:30:04.547Z,940.33
2023-01-27T10:35:03.418Z,940.45
2023-01-27T10:40:04.546Z,940.51
2023-01-27T10:45:03.241Z,940.55
2023-01-27T10:50:04.355Z,940.64
2023-01-27T10:55:03.300Z,940.72
2023-01-27T11:00:37.796Z,940.80
2023-01-27T11:05:03.422Z,940.90
2023-01-27T11:10:04.306Z,940.90
2023-01-27T11:15:03.448Z,940.92
2023-01-27T11:20:04.371Z,940.94
2023-01-27T11:25:03.269Z,941.04
2023-01-27T11:30:04.619Z,941.02
2023-01-27T11:35:03.430Z,940.88
2023-01-27T11:40:04.893Z,940.86
2023-01-27T11:45:03.490Z,940.80
2023-01-27T11:50:04.359Z,940.84
2023-01-27T11:55:03.308Z,940.90
2023-01-27T12:00:04.451Z,940.94
2023-01-27T12:05:03.541Z,941.06
2023-01-27T12:10:04.375Z,941.02
2023-01-27T12:15:03.235Z,940.94
2023-01-27T12:20:04.572Z,941.04
2023-01-27T12:25:03.453Z,941.04
2023-01-27T12:30:05.523Z,940.94
2023-01-27T12:35:03.260Z,940.94
2023-01-27T12:40:04.579Z,941.04
2023-01-27T12:45:03.281Z,941.09
2023-01-27T12:50:04.358Z,941.09
2023-01-27T12:55:03.424Z,941.09
2023-01-27T13:00:04.473Z,941.11
2023-01-27T13:05:03.404Z,941.17
2023-01-27T13:10:04.331Z,941.17
2023-01-27T13:15:03.285Z,941.17
2023-01-27T13:20:04.385Z,941.17
2023-01-27T13:25:03.369Z,941.11
2023-01-27T13:30:04.480Z,941.09
2023-01-27T13:35:03.441Z,941.13
2023-01-27T13:40:04.494Z,941.15
2023-01-27T13:45:03.244Z,941.13
2023-01-27T13:50:04.334Z,941.08
2023-01-27T13:55:03.361Z,941.11
2023-01-27T14:00:04.622Z,941.08
2023-01-27T14:05:03.501Z,940.94
2023-01-27T14:10:04.531Z,941.06
2023-01-27T14:15:03.593Z,940.94
2023-01-27T14:20:04.342Z,940.94
2023-01-27T14:25:03.422Z,940.82
2023-01-27T14:30:04.488Z,940.74
2023-01-27T14:35:03.442Z,940.72
2023-01-27T14:40:04.552Z,940.72
2023-01-27T14:45:15.900Z,940.74
2023-01-27T14:50:04.488Z,940.76
2023-01-27T14:55:03.335Z,940.70
2023-01-27T15:00:04.568Z,940.70
2023-01-27T15:05:04.449Z,940.68
2023-01-27T15:10:04.545Z,940.68
2023-01-27T15:15:04.495Z,940.68
2023-01-27T15:20:06.611Z,940.74
2023-01-27T15:25:03.367Z,940.66
2023-01-27T15:30:04.494Z,940.63
2023-01-27T15:35:03.514Z,940.57
2023-01-27T15:40:05.906Z,940.53
2023-01-27T15:45:03.294Z,940.53
2023-01-27T15:50:04.398Z,940.53
2023-01-27T15:55:03.464Z,940.55
2023-01-27T16:00:09.686Z,940.51
2023-01-27T16:05:03.488Z,940.47
2023-01-27T16:10:04.566Z,940.43
2023-01-27T16:15:03.444Z,940.33
2023-01-27T16:20:04.368Z,940.27
2023-01-27T16:25:03.540Z,940.21
2023-01-27T16:30:04.477Z,940.11
2023-01-27T16:35:03.433Z,940.04
2023-01-27T16:40:04.532Z,940.04
2023-01-27T16:45:03.268Z,940.04
2023-01-27T16:50:04.591Z,940.04
2023-01-27T16:55:04.486Z,939.92
2023-01-27T17:00:04.589Z,939.92
2023-01-27T17:05:04.424Z,939.86
2023-01-27T17:10:05.535Z,939.86
2023-01-27T17:15:03.453Z,939.88
2023-01-27T17:20:04.396Z,939.84
2023-01-27T17:25:03.396Z,939.78
2023-01-27T17:30:04.332Z,939.68
2023-01-27T17:35:04.429Z,939.60
2023-01-27T17:40:09.321Z,939.62
2023-01-27T17:45:03.524Z,939.56
2023-01-27T17:50:04.636Z,939.64
2023-01-27T17:55:03.435Z,939.60
2023-01-27T18:00:04.780Z,939.60
2023-01-27T18:05:03.447Z,939.58
2023-01-27T18:10:05.009Z,939.53
2023-01-27T18:15:03.458Z,939.53
2023-01-27T18:20:05.545Z,939.45
2023-01-27T18:25:03.383Z,939.39
2023-01-27T18:30:04.519Z,939.31
2023-01-27T18:35:03.423Z,939.29
2023-01-27T18:40:04.533Z,939.21
2023-01-27T18:45:03.621Z,939.23
2023-01-27T18:50:04.593Z,939.17
2023-01-27T18:55:03.395Z,939.07
2023-01-27T19:00:06.691Z,939.06
2023-01-27T19:05:03.447Z,939.02
2023-01-27T19:10:04.512Z,939.06
2023-01-27T19:15:03.552Z,939.06
2023-01-27T19:20:04.421Z,938.98
2023-01-27T19:25:03.363Z,938.94
2023-01-27T19:30:04.414Z,938.92
2023-01-27T19:35:03.718Z,938.84
2023-01-27T19:40:04.585Z,938.76
2023-01-27T19:45:03.513Z,938.68
2023-01-27T19:50:05.208Z,938.66
2023-01-27T19:55:03.358Z,938.62
2023-01-27T20:00:04.459Z,938.54
2023-01-27T20:05:03.610Z,938.35
2023-01-27T20:10:04.560Z,938.29
2023-01-27T20:15:04.506Z,938.21
2023-01-27T20:20:04.539Z,938.15
2023-01-27T20:25:04.361Z,938.13
2023-01-27T20:30:04.405Z,938.13
2023-01-27T20:35:03.296Z,938.13
2023-01-27T20:40:04.588Z,938.15
2023-01-27T20:45:03.564Z,938.11
2023-01-27T20:50:05.682Z,938.04
2023-01-27T20:55:03.286Z,938.04
2023-01-27T21:00:04.515Z,938.02
2023-01-27T21:05:03.395Z,938.02
2023-01-27T21:10:04.489Z,938.00
2023-01-27T21:15:03.443Z,937.90
2023-01-27T21:20:04.546Z,937.92
2023-01-27T21:25:03.282Z,937.94
2023-01-27T21:30:04.395Z,937.96
2023-01-27T21:35:03.376Z,937.98
2023-01-27T21:40:04.584Z,938.00
2023-01-27T21:45:03.434Z,937.96
2023-01-27T21:50:06.116Z,937.98
2023-01-27T21:55:03.528Z,937.98
2023-01-27T22:00:04.399Z,938.00
2023-01-27T22:05:03.369Z,938.04
2023-01-27T22:10:04.827Z,937.98
2023-01-27T22:15:03.556Z,937.98
2023-01-27T22:20:04.327Z,938.04
2023-01-27T22:25:03.363Z,938.08
2023-01-27T22:30:04.784Z,938.11
2023-01-27T22:35:03.400Z,938.11
2023-01-27T22:40:04.536Z,938.11
2023-01-27T22:45:03.554Z,938.15
2023-01-27T22:50:04.549Z,938.19
2023-01-27T22:55:04.595Z,938.23
2023-01-27T23:00:04.440Z,938.25
2023-01-27T23:05:04.518Z,938.31
2023-01-27T23:10:04.605Z,938.49
2023-01-27T23:15:03.245Z,938.49
2023-01-27T23:20:04.548Z,938.58
2023-01-27T23:25:03.386Z,938.66
2023-01-27T23:30:04.425Z,938.72
2023-01-27T23:35:03.419Z,938.84
2023-01-27T23:40:04.759Z,938.94
2023-01-27T23:45:03.514Z,939.00
2023-01-27T23:50:05.598Z,939.06
2023-01-27T23:55:03.270Z,939.11
